createdAt,value
2018-04-08T00:00:54.445Z,10.73
2018-04-08T00:03:22.835Z,10.50
2018-04-08T00:05:51.292Z,10.83
2018-04-08T00:08:20.475Z,10.77
2018-04-08T00:10:48.857Z,11.70
2018-04-08T00:13:17.292Z,11.53
2018-04-08T00:15:46.452Z,11.57
2018-04-08T00:18:14.874Z,11.80
2018-04-08T00:20:43.292Z,11.30
2018-04-08T00:23:11.757Z,12.23
2018-04-08T00:25:40.104Z,11.57
2018-04-08T00:28:08.513Z,11.07
2018-04-08T00:30:36.911Z,11.40
2018-04-08T00:33:05.294Z,11.47
2018-04-08T00:35:33.679Z,12.17
2018-04-08T00:38:02.511Z,12.13
2018-04-08T00:40:30.968Z,11.97
2018-04-08T00:42:59.363Z,11.70
2018-04-08T00:45:28.523Z,11.87
2018-04-08T00:47:56.940Z,12.00
2018-04-08T00:50:25.320Z,12.17
2018-04-08T00:52:53.739Z,11.60
2018-04-08T00:55:22.155Z,12.37
2018-04-08T00:57:50.886Z,12.10
2018-04-08T01:00:19.267Z,11.90
2018-04-08T01:02:48.433Z,12.90
2018-04-08T01:05:16.818Z,12.17
2018-04-08T01:07:45.176Z,13.13
2018-04-08T01:10:14.330Z,12.07
2018-04-08T01:12:42.732Z,11.90
2018-04-08T01:15:11.104Z,12.33
2018-04-08T01:17:39.599Z,12.10
2018-04-08T01:20:08.009Z,11.93
2018-04-08T01:22:36.419Z,11.73
2018-04-08T01:25:04.835Z,11.53
2018-04-08T01:27:33.211Z,12.87
2018-04-08T01:30:01.628Z,11.97
2018-04-08T01:32:30.142Z,11.77
2018-04-08T01:34:58.607Z,12.13
2018-04-08T01:37:26.969Z,12.63
2018-04-08T01:39:55.355Z,12.93
2018-04-08T01:42:23.727Z,12.13
2018-04-08T01:44:52.887Z,12.40
2018-04-08T01:47:21.272Z,12.10
2018-04-08T01:49:49.672Z,12.47
2018-04-08T01:52:18.060Z,12.67
2018-04-08T01:54:46.456Z,11.20
2018-04-08T01:57:14.861Z,12.00
2018-04-08T01:59:43.302Z,12.27
2018-04-08T02:02:11.705Z,11.87
2018-04-08T02:04:40.177Z,11.43
2018-04-08T02:07:08.554Z,11.07
2018-04-08T02:09:37.239Z,11.03
2018-04-08T02:12:05.727Z,11.43
2018-04-08T02:14:35.024Z,11.30
2018-04-08T02:17:04.360Z,11.83
2018-04-08T02:22:01.403Z,11.77
2018-04-08T02:24:29.763Z,9.90
2018-04-08T02:26:58.200Z,9.70
2018-04-08T02:29:26.571Z,10.33
2018-04-08T02:31:54.959Z,9.57
2018-04-08T02:34:23.329Z,11.03
2018-04-08T02:36:51.716Z,9.57
2018-04-08T02:39:20.100Z,10.27
2018-04-08T02:41:49.231Z,9.63
2018-04-08T02:44:17.822Z,10.63
2018-04-08T02:46:46.217Z,10.13
2018-04-08T02:49:14.600Z,11.00
2018-04-08T02:51:42.982Z,11.23
2018-04-08T02:54:11.364Z,11.40
2018-04-08T02:56:39.809Z,11.30
2018-04-08T02:59:08.216Z,10.83
2018-04-08T03:01:36.987Z,11.80
2018-04-08T03:04:05.416Z,11.80
2018-04-08T03:06:33.801Z,11.50
2018-04-08T03:09:03.000Z,11.40
2018-04-08T03:11:32.526Z,11.13
2018-04-08T03:14:00.879Z,10.50
2018-04-08T03:16:30.035Z,10.90
2018-04-08T03:18:58.481Z,11.33
2018-04-08T03:21:26.841Z,11.20
2018-04-08T03:23:55.270Z,10.57
2018-04-08T03:26:23.652Z,10.80
2018-04-08T03:28:52.063Z,10.97
2018-04-08T03:31:20.572Z,10.90
2018-04-08T03:33:48.944Z,10.83
2018-04-08T03:36:17.331Z,10.73
2018-04-08T03:38:45.741Z,11.23
2018-04-08T03:41:14.102Z,10.80
2018-04-08T03:43:42.569Z,10.73
2018-04-08T03:46:11.123Z,11.07
2018-04-08T03:48:39.477Z,11.43
2018-04-08T03:51:07.896Z,11.23
2018-04-08T03:53:36.277Z,11.40
2018-04-08T03:56:04.860Z,11.30
2018-04-08T03:58:34.076Z,11.03
2018-04-08T04:01:02.487Z,11.03
2018-04-08T04:03:30.858Z,11.27
2018-04-08T04:06:00.000Z,11.10
2018-04-08T04:08:28.389Z,11.70
2018-04-08T04:10:56.829Z,11.77
2018-04-08T04:13:25.233Z,11.17
2018-04-08T04:15:54.367Z,11.40
2018-04-08T04:18:34.820Z,10.60
2018-04-08T04:21:15.240Z,11.50
2018-04-08T04:23:56.135Z,11.23
2018-04-08T04:26:31.479Z,11.17
2018-04-08T04:28:59.863Z,10.63
2018-04-08T04:31:28.265Z,10.43
2018-04-08T04:33:56.619Z,9.80
2018-04-08T04:36:25.016Z,8.97
2018-04-08T04:38:53.499Z,9.77
2018-04-08T04:41:21.913Z,9.90
2018-04-08T04:43:50.292Z,9.33
2018-04-08T04:46:19.423Z,8.97
2018-04-08T04:48:47.912Z,10.33
2018-04-08T04:51:16.822Z,10.47
2018-04-08T04:53:45.216Z,9.63
2018-04-08T04:56:13.651Z,9.87
2018-04-08T04:58:42.036Z,9.43
2018-04-08T05:01:10.421Z,9.20
2018-04-08T05:03:38.865Z,10.30
2018-04-08T05:06:08.115Z,8.63
2018-04-08T05:08:36.540Z,8.83
2018-04-08T05:11:05.705Z,7.97
2018-04-08T05:13:34.179Z,9.33
2018-04-08T05:16:02.573Z,10.20
2018-04-08T05:18:30.956Z,10.93
2018-04-08T05:20:59.341Z,11.27
2018-04-08T05:23:28.477Z,11.13
2018-04-08T05:25:56.865Z,10.27
2018-04-08T05:28:25.234Z,11.07
2018-04-08T05:30:53.775Z,10.50
2018-04-08T05:33:22.199Z,10.07
2018-04-08T05:35:50.594Z,9.70
2018-04-08T05:38:19.032Z,9.47
2018-04-08T05:40:48.021Z,11.20
2018-04-08T05:43:17.020Z,10.70
2018-04-08T05:45:45.425Z,11.23
2018-04-08T05:48:13.815Z,10.27
2018-04-08T05:50:42.295Z,10.63
2018-04-08T05:53:10.700Z,10.67
2018-04-08T05:55:39.090Z,10.33
2018-04-08T05:58:08.329Z,9.93
2018-04-08T06:00:36.873Z,10.20
2018-04-08T06:03:06.057Z,10.13
2018-04-08T06:05:34.466Z,10.93
2018-04-08T06:08:02.856Z,10.33
2018-04-08T06:10:31.526Z,10.50
2018-04-08T06:13:00.651Z,10.77
2018-04-08T06:15:29.023Z,11.23
2018-04-08T06:17:57.416Z,10.00
2018-04-08T06:20:25.796Z,10.27
2018-04-08T06:22:54.173Z,10.43
2018-04-08T06:25:22.580Z,10.73
2018-04-08T06:27:50.951Z,10.90
2018-04-08T06:30:19.369Z,9.90
2018-04-08T06:32:48.604Z,10.00
2018-04-08T06:35:16.968Z,11.40
2018-04-08T06:37:45.474Z,10.47
2018-04-08T06:40:14.007Z,10.77
2018-04-08T06:42:42.481Z,10.33
2018-04-08T06:45:10.995Z,9.97
2018-04-08T06:47:39.388Z,9.90
2018-04-08T06:50:07.840Z,10.17
2018-04-08T06:52:36.231Z,10.90
2018-04-08T06:55:04.620Z,10.53
2018-04-08T06:57:33.456Z,10.73
2018-04-08T07:00:02.609Z,11.33
2018-04-08T07:02:31.000Z,10.27
2018-04-08T07:04:59.476Z,10.23
2018-04-08T07:07:27.972Z,10.03
2018-04-08T07:09:56.355Z,10.80
2018-04-08T07:12:24.722Z,10.40
2018-04-08T07:14:53.117Z,10.23
2018-04-08T07:17:22.548Z,10.20
2018-04-08T07:19:51.000Z,9.97
2018-04-08T07:22:20.404Z,10.23
2018-04-08T07:24:49.573Z,10.60
2018-04-08T07:27:18.039Z,10.70
2018-04-08T07:29:46.429Z,10.53
2018-04-08T07:32:14.823Z,10.80
2018-04-08T07:34:43.274Z,10.57
2018-04-08T07:37:11.718Z,10.10
2018-04-08T07:39:40.099Z,10.03
2018-04-08T07:42:08.712Z,10.30
2018-04-08T07:44:37.139Z,9.37
2018-04-08T07:47:06.312Z,10.33
2018-04-08T07:49:34.684Z,9.70
2018-04-08T07:52:03.239Z,10.17
2018-04-08T07:54:32.147Z,10.03
2018-04-08T07:57:00.545Z,10.03
2018-04-08T07:59:28.966Z,9.90
2018-04-08T08:01:57.355Z,10.67
2018-04-08T08:04:25.744Z,10.43
2018-04-08T08:06:54.860Z,9.60
2018-04-08T08:09:23.264Z,10.37
2018-04-08T08:11:52.378Z,9.80
2018-04-08T08:14:20.793Z,10.90
2018-04-08T08:16:50.128Z,10.50
2018-04-08T08:19:18.533Z,10.47
2018-04-08T08:21:47.703Z,10.43
2018-04-08T08:24:16.179Z,11.03
2018-04-08T08:26:44.588Z,10.20
2018-04-08T08:29:13.770Z,10.90
2018-04-08T08:31:43.003Z,10.50
2018-04-08T08:34:11.393Z,26.13
2018-04-08T08:36:39.802Z,11.50
2018-04-08T08:39:08.289Z,11.00
2018-04-08T08:41:36.684Z,10.63
2018-04-08T08:44:05.853Z,10.23
2018-04-08T08:46:34.356Z,10.73
2018-04-08T08:49:02.885Z,10.57
2018-04-08T08:51:31.411Z,11.10
2018-04-08T08:53:59.799Z,11.27
2018-04-08T08:56:28.977Z,10.80
2018-04-08T08:58:57.450Z,10.63
2018-04-08T09:01:25.838Z,11.10
2018-04-08T09:03:54.278Z,10.27
2018-04-08T09:06:22.699Z,11.20
2018-04-08T09:08:51.100Z,11.47
2018-04-08T09:11:20.261Z,11.93
2018-04-08T09:13:48.695Z,11.73
2018-04-08T09:16:17.071Z,12.13
2018-04-08T09:18:45.516Z,11.37
2018-04-08T09:21:20.244Z,11.30
2018-04-08T09:23:49.516Z,11.47
2018-04-08T09:26:17.935Z,11.33
2018-04-08T09:28:47.105Z,12.00
2018-04-08T09:31:15.483Z,17.57
2018-04-08T09:33:44.846Z,11.60
2018-04-08T09:36:13.261Z,11.37
2018-04-08T09:38:41.634Z,20.73
2018-04-08T09:41:10.053Z,15.97
2018-04-08T09:43:38.439Z,13.50
2018-04-08T09:46:07.144Z,14.57
2018-04-08T09:48:35.783Z,12.90
2018-04-08T09:51:04.937Z,12.77
2018-04-08T09:53:33.351Z,14.90
2018-04-08T09:56:01.742Z,15.30
2018-04-08T09:58:30.902Z,13.20
2018-04-08T10:01:15.056Z,13.37
2018-04-08T10:03:46.950Z,12.43
2018-04-08T10:06:16.406Z,13.63
2018-04-08T10:08:44.794Z,13.80
2018-04-08T10:11:13.159Z,12.37
2018-04-08T10:13:41.569Z,14.27
2018-04-08T10:16:10.417Z,14.73
2018-04-08T10:18:38.830Z,14.87
2018-04-08T10:21:07.221Z,14.40
2018-04-08T10:23:36.371Z,14.03
2018-04-08T10:26:04.752Z,13.70
2018-04-08T10:28:33.183Z,12.67
2018-04-08T10:31:02.361Z,14.07
2018-04-08T10:33:30.884Z,14.27
2018-04-08T10:35:59.285Z,13.70
2018-04-08T10:38:27.687Z,13.57
2018-04-08T10:40:56.076Z,15.40
2018-04-08T10:43:24.485Z,13.73
2018-04-08T10:45:52.908Z,14.07
2018-04-08T10:48:21.312Z,15.00
2018-04-08T10:50:49.729Z,13.53
2018-04-08T10:53:18.159Z,13.13
2018-04-08T10:55:46.719Z,14.63
2018-04-08T10:58:19.194Z,15.97
2018-04-08T11:00:47.608Z,14.27
2018-04-08T11:03:16.012Z,15.17
2018-04-08T11:05:45.160Z,14.13
2018-04-08T11:08:13.576Z,14.17
2018-04-08T11:10:42.729Z,15.10
2018-04-08T11:13:11.114Z,14.40
2018-04-08T11:15:39.520Z,14.13
2018-04-08T11:18:07.928Z,14.17
2018-04-08T11:20:36.345Z,14.70
2018-04-08T11:23:04.729Z,13.43
2018-04-08T11:25:33.091Z,13.37
2018-04-08T11:28:01.467Z,13.63
2018-04-08T11:30:30.623Z,13.60
2018-04-08T11:32:59.003Z,14.07
2018-04-08T11:35:27.394Z,14.83
2018-04-08T11:37:55.775Z,12.63
2018-04-08T11:40:24.212Z,13.83
2018-04-08T11:42:52.740Z,14.17
2018-04-08T11:45:21.136Z,13.40
2018-04-08T11:47:49.504Z,13.70
2018-04-08T11:50:17.900Z,13.90
2018-04-08T11:52:46.319Z,13.47
2018-04-08T11:55:15.476Z,13.20
2018-04-08T11:57:43.840Z,12.47
2018-04-08T12:00:12.211Z,12.73
2018-04-08T12:02:40.600Z,11.37
2018-04-08T12:05:08.986Z,12.07
2018-04-08T12:07:37.425Z,12.50
2018-04-08T12:10:05.800Z,12.87
2018-04-08T12:12:34.257Z,12.50
2018-04-08T12:15:03.520Z,11.83
2018-04-08T12:17:32.663Z,11.80
2018-04-08T12:20:01.099Z,11.93
2018-04-08T12:22:30.287Z,12.33
2018-04-08T12:24:58.762Z,12.07
2018-04-08T12:27:27.164Z,11.93
2018-04-08T12:29:57.024Z,11.90
2018-04-08T12:32:25.709Z,9.20
2018-04-08T12:34:54.398Z,10.40
2018-04-08T12:37:22.773Z,9.87
2018-04-08T12:39:51.160Z,9.67
2018-04-08T12:42:19.548Z,9.87
2018-04-08T12:44:48.323Z,9.30
2018-04-08T12:47:16.700Z,8.40
2018-04-08T12:49:45.084Z,8.37
2018-04-08T12:52:13.491Z,9.23
2018-04-08T12:54:42.662Z,9.10
2018-04-08T12:57:11.051Z,9.03
2018-04-08T12:59:39.419Z,9.13
2018-04-08T13:02:07.796Z,9.63
2018-04-08T13:04:36.179Z,8.50
2018-04-08T13:07:04.770Z,10.13
2018-04-08T13:09:33.916Z,8.77
2018-04-08T13:12:03.164Z,8.13
2018-04-08T13:14:31.535Z,8.23
2018-04-08T13:17:00.062Z,9.57
2018-04-08T13:19:28.455Z,8.23
2018-04-08T13:21:57.610Z,8.73
2018-04-08T13:24:26.039Z,8.50
2018-04-08T13:26:54.461Z,7.67
2018-04-08T13:29:22.883Z,8.33
2018-04-08T13:31:52.089Z,9.13
2018-04-08T13:34:21.264Z,8.13
2018-04-08T13:36:49.656Z,8.50
2018-04-08T13:39:18.822Z,9.00
2018-04-08T13:41:47.192Z,8.97
2018-04-08T13:44:15.586Z,8.00
2018-04-08T13:46:43.984Z,7.03
2018-04-08T13:49:12.384Z,7.07
2018-04-08T13:51:40.801Z,7.10
2018-04-08T13:54:09.183Z,6.53
2018-04-08T13:56:37.600Z,6.60
2018-04-08T13:59:06.804Z,6.90
2018-04-08T14:01:35.951Z,7.67
2018-04-08T14:04:04.319Z,6.23
2018-04-08T14:06:32.753Z,7.33
2018-04-08T14:09:02.171Z,7.67
2018-04-08T14:11:30.559Z,6.97
2018-04-08T14:13:58.936Z,6.63
2018-04-08T14:16:27.323Z,7.40
2018-04-08T14:18:55.876Z,8.03
2018-04-08T14:21:24.308Z,7.83
2018-04-08T14:23:52.695Z,6.13
2018-04-08T14:26:21.880Z,6.07
2018-04-08T14:28:51.272Z,6.53
2018-04-08T14:31:19.689Z,7.90
2018-04-08T14:33:48.077Z,6.57
2018-04-08T14:36:17.271Z,6.13
2018-04-08T14:38:45.632Z,6.00
2018-04-08T14:41:14.347Z,6.33
2018-04-08T14:43:43.318Z,8.20
2018-04-08T14:46:11.752Z,7.90
2018-04-08T14:48:40.153Z,6.53
2018-04-08T14:51:08.633Z,6.93
2018-04-08T14:53:37.033Z,7.80
2018-04-08T14:56:05.489Z,6.63
2018-04-08T14:58:33.917Z,5.63
2018-04-08T15:01:03.058Z,7.07
2018-04-08T15:03:31.500Z,6.40
2018-04-08T15:06:00.737Z,6.67
2018-04-08T15:08:29.169Z,7.37
2018-04-08T15:10:57.591Z,5.80
2018-04-08T15:13:25.990Z,6.20
2018-04-08T15:15:54.358Z,5.37
2018-04-08T15:18:23.484Z,5.10
2018-04-08T15:20:53.075Z,4.43
2018-04-08T15:23:21.672Z,3.83
2018-04-08T15:25:50.819Z,4.40
2018-04-08T15:28:19.244Z,4.30
2018-04-08T15:30:48.491Z,4.27
2018-04-08T15:33:17.086Z,4.17
2018-04-08T15:35:45.525Z,4.40
2018-04-08T15:38:13.949Z,3.60
2018-04-08T15:40:42.328Z,3.47
2018-04-08T15:43:10.704Z,3.37
2018-04-08T15:45:39.113Z,3.17
2018-04-08T15:48:07.508Z,3.67
2018-04-08T15:50:35.883Z,3.20
2018-04-08T15:53:05.191Z,3.20
2018-04-08T15:55:33.620Z,3.20
2018-04-08T15:58:02.003Z,3.90
2018-04-08T16:00:30.394Z,3.93
2018-04-08T16:02:58.808Z,3.83
2018-04-08T16:05:27.369Z,3.20
2018-04-08T16:07:57.454Z,3.23
2018-04-08T16:10:25.811Z,3.30
2018-04-08T16:12:54.219Z,3.50
2018-04-08T16:15:22.657Z,3.60
2018-04-08T16:17:51.807Z,3.20
2018-04-08T16:20:20.195Z,3.07
2018-04-08T16:22:48.682Z,3.20
2018-04-08T16:25:17.097Z,3.40
2018-04-08T16:27:45.681Z,3.30
2018-04-08T16:30:14.827Z,3.20
2018-04-08T16:32:43.992Z,3.30
2018-04-08T16:35:12.363Z,2.97
2018-04-08T16:37:40.743Z,3.50
2018-04-08T16:40:09.154Z,3.10
2018-04-08T16:42:37.532Z,2.53
2018-04-08T16:45:05.921Z,3.50
2018-04-08T16:47:34.296Z,3.63
2018-04-08T16:50:03.985Z,3.80
2018-04-08T16:52:32.389Z,3.57
2018-04-08T16:55:00.771Z,4.03
2018-04-08T16:57:29.907Z,3.90
2018-04-08T16:59:58.283Z,4.67
2018-04-08T17:02:26.662Z,4.20
2018-04-08T17:04:55.419Z,4.50
2018-04-08T17:07:23.835Z,4.73
2018-04-08T17:09:52.059Z,4.57
2018-04-08T17:12:22.070Z,4.30
2018-04-08T17:14:51.203Z,3.97
2018-04-08T17:17:19.585Z,4.23
2018-04-08T17:19:47.992Z,3.93
2018-04-08T17:22:16.464Z,4.77
2018-04-08T17:24:44.838Z,4.17
2018-04-08T17:27:13.255Z,4.67
2018-04-08T17:29:42.072Z,4.70
2018-04-08T17:32:10.489Z,4.67
2018-04-08T17:34:38.952Z,4.70
2018-04-08T17:37:07.804Z,4.47
2018-04-08T17:39:36.944Z,4.50
2018-04-08T17:42:05.715Z,4.80
2018-04-08T17:44:34.961Z,4.40
2018-04-08T17:47:03.312Z,4.23
2018-04-08T17:49:31.688Z,4.30
2018-04-08T17:52:00.078Z,4.07
2018-04-08T17:54:29.243Z,4.53
2018-04-08T17:56:57.613Z,4.27
2018-04-08T17:59:26.007Z,3.97
2018-04-08T18:01:54.389Z,4.20
2018-04-08T18:04:22.779Z,4.17
2018-04-08T18:06:51.135Z,3.83
2018-04-08T18:09:19.764Z,3.83
2018-04-08T18:11:48.143Z,3.47
2018-04-08T18:14:16.515Z,3.80
2018-04-08T18:16:45.003Z,3.90
2018-04-08T18:19:13.400Z,3.80
2018-04-08T18:21:42.550Z,3.80
2018-04-08T18:24:10.956Z,4.07
2018-04-08T18:26:40.096Z,3.73
2018-04-08T18:29:08.527Z,4.20
2018-04-08T18:31:36.954Z,4.10
2018-04-08T18:34:05.499Z,5.43
2018-04-08T18:36:33.869Z,5.13
2018-04-08T18:39:02.299Z,4.00
2018-04-08T18:41:31.422Z,3.73
2018-04-08T18:44:00.600Z,4.00
2018-04-08T18:46:28.983Z,4.60
2018-04-08T18:48:57.412Z,4.60
2018-04-08T18:51:26.592Z,4.27
2018-04-08T18:53:55.746Z,4.07
2018-04-08T18:56:24.136Z,4.00
2018-04-08T18:58:53.312Z,3.87
2018-04-08T19:01:22.419Z,3.77
2018-04-08T19:03:50.827Z,3.80
2018-04-08T19:06:19.212Z,3.77
2018-04-08T19:08:47.905Z,4.13
2018-04-08T19:11:17.068Z,3.63
2018-04-08T19:13:45.624Z,4.10
2018-04-08T19:16:14.129Z,4.00
2018-04-08T19:18:42.561Z,3.77
2018-04-08T19:21:11.694Z,3.60
2018-04-08T19:23:40.095Z,3.37
2018-04-08T19:26:10.032Z,3.30
2018-04-08T19:28:39.205Z,3.20
2018-04-08T19:31:07.697Z,3.37
2018-04-08T19:33:36.098Z,3.47
2018-04-08T19:36:05.327Z,3.60
2018-04-08T19:38:33.741Z,3.07
2018-04-08T19:41:02.119Z,3.07
2018-04-08T19:43:30.514Z,3.10
2018-04-08T19:45:58.908Z,3.17
2018-04-08T19:48:28.096Z,3.00
2018-04-08T19:50:57.268Z,3.30
2018-04-08T19:53:25.682Z,3.30
2018-04-08T19:55:54.841Z,3.53
2018-04-08T19:58:23.254Z,3.27
2018-04-08T20:00:52.413Z,3.20
2018-04-08T20:03:21.100Z,3.20
2018-04-08T20:05:49.501Z,3.10
2018-04-08T20:08:17.871Z,3.10
2018-04-08T20:10:47.045Z,3.07
2018-04-08T20:13:16.228Z,2.87
2018-04-08T20:15:44.697Z,3.40
2018-04-08T20:18:13.134Z,3.13
2018-04-08T20:20:42.280Z,3.07
2018-04-08T20:23:10.764Z,3.00
2018-04-08T20:25:39.193Z,3.30
2018-04-08T20:28:08.378Z,3.40
2018-04-08T20:30:36.980Z,3.40
2018-04-08T20:33:06.164Z,3.33
2018-04-08T20:35:34.631Z,3.20
2018-04-08T20:38:04.088Z,3.10
2018-04-08T20:40:32.503Z,3.20
2018-04-08T20:43:00.937Z,3.57
2018-04-08T20:45:30.192Z,3.10
2018-04-08T20:47:58.799Z,3.20
2018-04-08T20:50:27.951Z,3.50
2018-04-08T20:52:56.561Z,3.50
2018-04-08T20:55:24.996Z,3.50
2018-04-08T20:57:53.858Z,3.33
2018-04-08T21:00:23.025Z,3.37
2018-04-08T21:02:51.845Z,3.30
2018-04-08T21:05:20.231Z,3.07
2018-04-08T21:07:48.609Z,3.50
2018-04-08T21:10:17.844Z,3.27
2018-04-08T21:12:46.254Z,3.43
2018-04-08T21:15:15.667Z,3.50
2018-04-08T21:17:44.820Z,3.67
2018-04-08T21:20:13.204Z,3.73
2018-04-08T21:22:41.607Z,3.53
2018-04-08T21:25:10.009Z,3.50
2018-04-08T21:27:38.393Z,3.80
2018-04-08T21:30:06.781Z,3.37
2018-04-08T21:32:35.615Z,3.90
2018-04-08T21:35:03.994Z,3.97
2018-04-08T21:37:32.375Z,4.13
2018-04-08T21:40:00.769Z,3.93
2018-04-08T21:42:29.907Z,4.10
2018-04-08T21:44:58.303Z,4.20
2018-04-08T21:47:26.708Z,3.87
2018-04-08T21:49:55.094Z,4.87
2018-04-08T21:52:24.301Z,4.00
2018-04-08T21:54:53.463Z,4.30
2018-04-08T21:57:22.582Z,4.03
2018-04-08T21:59:51.735Z,4.00
2018-04-08T22:02:20.097Z,3.97
2018-04-08T22:04:48.890Z,4.30
2018-04-08T22:07:17.316Z,4.33
2018-04-08T22:09:45.725Z,4.20
2018-04-08T22:12:14.180Z,4.07
2018-04-08T22:14:42.632Z,4.03
2018-04-08T22:17:11.036Z,4.40
2018-04-08T22:19:40.172Z,4.07
2018-04-08T22:22:08.564Z,4.13
2018-04-08T22:24:36.935Z,4.30
2018-04-08T22:27:05.446Z,4.30
2018-04-08T22:29:34.044Z,4.43
2018-04-08T22:32:02.622Z,3.90
2018-04-08T22:34:30.995Z,4.40
2018-04-08T22:36:59.392Z,4.70
2018-04-08T22:39:28.557Z,4.00
2018-04-08T22:41:57.069Z,4.30
2018-04-08T22:44:26.230Z,4.23
2018-04-08T22:46:55.414Z,5.30
2018-04-08T22:49:23.789Z,5.27
2018-04-08T22:51:52.177Z,5.40
2018-04-08T22:54:20.558Z,4.80
2018-04-08T22:56:48.944Z,5.23
2018-04-08T22:59:17.355Z,5.43
2018-04-08T23:01:46.808Z,4.60
2018-04-08T23:04:15.311Z,5.10
2018-04-08T23:06:43.715Z,5.50
2018-04-08T23:09:13.145Z,5.20
2018-04-08T23:11:41.572Z,5.20
2018-04-08T23:14:09.913Z,5.30
2018-04-08T23:16:38.513Z,5.20
2018-04-08T23:19:06.890Z,5.30
2018-04-08T23:21:36.021Z,4.77
2018-04-08T23:24:04.389Z,5.13
2018-04-08T23:26:32.751Z,5.23
2018-04-08T23:29:01.368Z,4.93
2018-04-08T23:31:30.501Z,4.87
2018-04-08T23:33:59.783Z,5.20
2018-04-08T23:36:28.225Z,4.77
2018-04-08T23:38:57.364Z,5.47
2018-04-08T23:41:25.732Z,4.90
2018-04-08T23:43:54.127Z,5.30
2018-04-08T23:46:22.512Z,5.33
2018-04-08T23:48:50.908Z,5.17
2018-04-08T23:51:19.415Z,4.87
2018-04-08T23:53:47.812Z,5.27
2018-04-08T23:56:16.400Z,4.90
2018-04-08T23:58:45.556Z,5.30
